createdAt,value
2022-11-24T00:01:25.660Z,10.10
2022-11-24T00:04:04.521Z,12.37
2022-11-24T00:06:33.503Z,10.37
2022-11-24T00:09:01.410Z,9.27
2022-11-24T00:11:31.010Z,9.40
2022-11-24T00:13:59.167Z,8.93
2022-11-24T00:16:34.679Z,9.77
2022-11-24T00:19:04.458Z,11.23
2022-11-24T00:21:32.207Z,10.57
2022-11-24T00:23:59.859Z,11.27
2022-11-24T00:26:30.026Z,10.30
2022-11-24T00:28:59.170Z,10.10
2022-11-24T00:31:34.061Z,12.90
2022-11-24T00:34:07.388Z,10.87
2022-11-24T00:36:36.021Z,10.77
2022-11-24T00:39:08.100Z,9.23
2022-11-24T00:41:35.311Z,11.40
2022-11-24T00:44:03.003Z,14.57
2022-11-24T00:46:30.103Z,10.70
2022-11-24T00:48:58.051Z,11.83
2022-11-24T00:51:33.116Z,11.00
2022-11-24T00:54:01.445Z,12.93
2022-11-24T00:56:29.838Z,10.67
2022-11-24T00:58:57.373Z,10.70
2022-11-24T01:01:27.212Z,10.57
2022-11-24T01:03:57.604Z,13.73
2022-11-24T01:06:26.710Z,12.57
2022-11-24T01:08:54.665Z,12.93
2022-11-24T01:11:23.097Z,13.67
2022-11-24T01:13:57.603Z,13.67
2022-11-24T01:16:34.487Z,12.10
2022-11-24T01:19:03.883Z,12.03
2022-11-24T01:21:30.934Z,11.07
2022-11-24T01:23:58.239Z,11.80
2022-11-24T01:26:25.325Z,12.13
2022-11-24T01:28:57.215Z,12.63
2022-11-24T01:31:25.636Z,15.83
2022-11-24T01:33:53.203Z,13.37
2022-11-24T01:36:21.130Z,13.83
2022-11-24T01:38:48.384Z,11.40
2022-11-24T01:41:21.782Z,13.10
2022-11-24T01:43:49.813Z,12.87
2022-11-24T01:46:19.815Z,13.30
2022-11-24T01:48:58.292Z,13.13
2022-11-24T01:51:28.841Z,14.63
2022-11-24T01:54:24.438Z,12.60
2022-11-24T01:56:57.271Z,11.53
2022-11-24T01:59:25.965Z,13.80
2022-11-24T02:01:53.727Z,13.27
2022-11-24T02:04:27.969Z,12.90
2022-11-24T02:06:59.390Z,13.80
2022-11-24T02:09:59.652Z,13.13
2022-11-24T02:12:27.586Z,14.70
2022-11-24T02:15:15.625Z,12.63
2022-11-24T02:17:42.750Z,15.17
2022-11-24T02:20:11.085Z,15.53
2022-11-24T02:23:00.897Z,18.30
2022-11-24T02:25:46.266Z,14.03
2022-11-24T02:28:17.560Z,12.53
2022-11-24T02:30:45.055Z,14.63
2022-11-24T02:33:13.204Z,13.87
2022-11-24T02:35:40.423Z,19.00
2022-11-24T02:38:07.820Z,16.97
2022-11-24T02:40:35.362Z,14.23
2022-11-24T02:43:08.143Z,14.80
2022-11-24T02:45:35.191Z,13.60
2022-11-24T02:48:02.476Z,13.33
2022-11-24T02:50:29.619Z,13.60
2022-11-24T02:52:56.621Z,13.77
2022-11-24T02:55:23.870Z,13.13
2022-11-24T02:57:50.901Z,15.13
2022-11-24T03:00:18.625Z,14.27
2022-11-24T03:02:45.881Z,11.70
2022-11-24T03:05:13.668Z,13.27
2022-11-24T03:07:40.829Z,11.93
2022-11-24T03:10:08.296Z,14.07
2022-11-24T03:12:35.472Z,12.67
2022-11-24T03:15:03.424Z,14.07
2022-11-24T03:17:31.317Z,13.23
2022-11-24T03:20:04.316Z,12.53
2022-11-24T03:22:32.195Z,11.90
2022-11-24T03:24:59.433Z,11.43
2022-11-24T03:27:26.856Z,12.50
2022-11-24T03:29:53.955Z,14.97
2022-11-24T03:32:21.070Z,11.03
2022-11-24T03:34:48.136Z,10.97
2022-11-24T03:37:15.921Z,13.80
2022-11-24T03:39:43.025Z,13.33
2022-11-24T03:42:10.251Z,12.07
2022-11-24T03:44:37.430Z,10.70
2022-11-24T03:47:04.571Z,14.73
2022-11-24T03:49:31.894Z,10.13
2022-11-24T03:52:02.681Z,11.47
2022-11-24T03:54:34.038Z,14.03
2022-11-24T03:57:01.244Z,11.30
2022-11-24T03:59:28.327Z,11.10
2022-11-24T04:01:55.423Z,11.17
2022-11-24T04:04:22.530Z,14.20
2022-11-24T04:06:49.560Z,9.57
2022-11-24T04:09:16.806Z,11.63
2022-11-24T04:12:02.298Z,13.23
2022-11-24T04:14:29.317Z,10.43
2022-11-24T04:16:56.268Z,9.70
2022-11-24T04:19:23.270Z,9.73
2022-11-24T04:21:50.253Z,11.60
2022-11-24T04:24:17.228Z,15.70
2022-11-24T04:26:44.150Z,11.67
2022-11-24T04:29:11.357Z,11.67
2022-11-24T04:31:38.360Z,12.00
2022-11-24T04:34:05.349Z,12.90
2022-11-24T04:36:32.389Z,17.00
2022-11-24T04:39:20.160Z,13.63
2022-11-24T04:41:47.730Z,13.10
2022-11-24T04:44:14.794Z,14.67
2022-11-24T04:46:41.724Z,16.33
2022-11-24T04:49:11.822Z,12.83
2022-11-24T04:51:39.878Z,11.27
2022-11-24T04:54:09.844Z,15.47
2022-11-24T04:56:36.829Z,12.37
2022-11-24T04:59:07.984Z,12.67
2022-11-24T05:01:35.891Z,12.97
2022-11-24T05:04:02.953Z,12.17
2022-11-24T05:06:30.198Z,11.57
2022-11-24T05:08:57.099Z,11.27
2022-11-24T05:11:24.104Z,16.07
2022-11-24T05:13:53.541Z,10.93
2022-11-24T05:16:20.556Z,11.67
2022-11-24T05:18:47.571Z,11.47
2022-11-24T05:21:14.945Z,8.90
2022-11-24T05:23:42.098Z,14.03
2022-11-24T05:26:09.264Z,14.07
2022-11-24T05:28:36.263Z,13.87
2022-11-24T05:31:04.485Z,12.27
2022-11-24T05:33:33.626Z,11.13
2022-11-24T05:36:05.524Z,10.90
2022-11-24T05:38:33.957Z,14.17
2022-11-24T05:41:05.367Z,14.50
2022-11-24T05:43:32.521Z,15.57
2022-11-24T05:46:00.732Z,12.53
2022-11-24T05:48:28.184Z,16.27
2022-11-24T05:50:56.311Z,16.07
2022-11-24T05:53:23.910Z,17.07
2022-11-24T05:55:50.935Z,16.87
2022-11-24T05:58:18.056Z,17.57
2022-11-24T06:00:45.051Z,14.47
2022-11-24T06:03:12.673Z,15.33
2022-11-24T06:05:40.398Z,18.70
2022-11-24T06:08:07.333Z,11.53
2022-11-24T06:10:34.278Z,11.93
2022-11-24T06:13:06.255Z,16.40
2022-11-24T06:15:34.054Z,13.93
2022-11-24T06:18:00.983Z,11.63
2022-11-24T06:20:32.457Z,12.90
2022-11-24T06:23:01.228Z,15.27
2022-11-24T06:25:29.359Z,11.67
2022-11-24T06:27:56.422Z,11.47
2022-11-24T06:30:23.453Z,12.80
2022-11-24T06:32:55.074Z,12.23
2022-11-24T06:35:22.147Z,15.73
2022-11-24T06:37:49.118Z,13.73
2022-11-24T06:40:16.445Z,15.57
2022-11-24T06:42:43.339Z,15.90
2022-11-24T06:45:10.539Z,15.23
2022-11-24T06:47:37.633Z,14.37
2022-11-24T06:50:05.057Z,20.13
2022-11-24T06:52:32.684Z,16.70
2022-11-24T06:54:59.762Z,16.53
2022-11-24T06:57:29.570Z,14.57
2022-11-24T06:59:57.407Z,17.43
2022-11-24T07:02:24.559Z,17.67
2022-11-24T07:04:51.536Z,16.80
2022-11-24T07:07:18.588Z,16.13
2022-11-24T07:09:45.626Z,13.40
2022-11-24T07:12:12.559Z,12.83
2022-11-24T07:14:39.526Z,15.57
2022-11-24T07:17:07.435Z,13.47
2022-11-24T07:19:34.502Z,20.03
2022-11-24T07:22:01.396Z,19.67
2022-11-24T07:24:28.281Z,14.83
2022-11-24T07:26:55.218Z,11.77
2022-11-24T07:29:22.160Z,12.10
2022-11-24T07:31:49.090Z,13.50
2022-11-24T07:34:16.035Z,14.33
2022-11-24T07:36:43.074Z,11.97
2022-11-24T07:39:10.066Z,12.43
2022-11-24T07:41:37.097Z,17.97
2022-11-24T07:44:04.299Z,14.23
2022-11-24T07:46:31.240Z,15.30
2022-11-24T07:48:58.270Z,17.73
2022-11-24T07:51:25.196Z,13.53
2022-11-24T07:53:52.170Z,13.00
2022-11-24T07:56:19.081Z,14.53
2022-11-24T07:58:51.381Z,17.13
2022-11-24T08:01:20.298Z,20.13
2022-11-24T08:03:47.900Z,15.33
2022-11-24T08:06:38.504Z,15.73
2022-11-24T08:09:02.108Z,13.80
2022-11-24T08:11:31.730Z,16.53
2022-11-24T08:13:58.863Z,14.60
2022-11-24T08:16:25.781Z,13.60
2022-11-24T08:18:55.091Z,21.20
2022-11-24T08:21:26.014Z,13.53
2022-11-24T08:23:57.171Z,14.97
2022-11-24T08:26:25.440Z,17.00
2022-11-24T08:28:58.480Z,16.20
2022-11-24T08:31:32.863Z,13.77
2022-11-24T08:34:00.672Z,16.47
2022-11-24T08:36:27.636Z,21.17
2022-11-24T08:38:56.771Z,16.47
2022-11-24T08:41:24.535Z,14.47
2022-11-24T08:43:51.723Z,13.27
2022-11-24T08:46:19.458Z,14.23
2022-11-24T08:48:51.134Z,17.27
2022-11-24T08:51:23.306Z,19.83
2022-11-24T08:53:58.502Z,15.43
2022-11-24T08:56:30.359Z,15.33
2022-11-24T08:58:58.015Z,15.47
2022-11-24T09:01:26.328Z,16.37
2022-11-24T09:03:53.477Z,15.43
2022-11-24T09:06:23.861Z,15.70
2022-11-24T09:08:52.195Z,17.13
2022-11-24T09:11:19.769Z,17.43
2022-11-24T09:13:46.874Z,17.70
2022-11-24T09:16:17.346Z,19.93
2022-11-24T09:18:45.222Z,17.83
2022-11-24T09:21:20.166Z,16.67
2022-11-24T09:23:49.269Z,15.47
2022-11-24T09:26:25.991Z,20.37
2022-11-24T09:28:54.649Z,17.67
2022-11-24T09:31:24.234Z,18.10
2022-11-24T09:33:52.494Z,17.57
2022-11-24T09:36:20.460Z,15.73
2022-11-24T09:38:48.302Z,15.93
2022-11-24T09:41:15.249Z,19.87
2022-11-24T09:44:06.972Z,20.17
2022-11-24T09:46:42.902Z,17.33
2022-11-24T09:49:41.976Z,19.05
2022-11-24T09:52:14.574Z,13.77
2022-11-24T09:54:54.315Z,17.17
2022-11-24T09:57:24.616Z,19.40
2022-11-24T09:59:51.594Z,16.07
2022-11-24T10:02:18.518Z,20.60
2022-11-24T10:04:47.202Z,18.20
2022-11-24T10:07:30.813Z,18.43
2022-11-24T10:10:09.621Z,16.43
2022-11-24T10:13:15.278Z,18.10
2022-11-24T10:15:54.966Z,20.10
2022-11-24T10:18:40.257Z,17.93
2022-11-24T10:21:25.509Z,20.27
2022-11-24T10:23:55.089Z,22.17
2022-11-24T10:26:38.670Z,20.73
2022-11-24T10:29:30.700Z,27.97
2022-11-24T10:31:58.138Z,18.40
2022-11-24T10:34:37.714Z,21.87
2022-11-24T10:37:24.913Z,18.07
2022-11-24T10:41:00.463Z,23.15
2022-11-24T10:43:28.677Z,19.73
2022-11-24T10:46:10.813Z,20.67
2022-11-24T10:48:44.066Z,27.60
2022-11-24T10:51:37.423Z,17.97
2022-11-24T10:54:24.125Z,18.77
2022-11-24T10:56:52.978Z,24.88
2022-11-24T10:59:25.678Z,20.67
2022-11-24T11:01:53.402Z,24.90
2022-11-24T11:04:40.626Z,22.27
2022-11-24T11:07:18.859Z,21.35
2022-11-24T11:09:47.647Z,22.20
2022-11-24T11:12:45.769Z,22.03
2022-11-24T11:15:22.013Z,20.63
2022-11-24T11:17:50.580Z,16.45
2022-11-24T11:20:32.822Z,16.37
2022-11-24T11:23:04.941Z,14.33
2022-11-24T11:25:36.333Z,17.00
2022-11-24T11:28:29.184Z,17.57
2022-11-24T11:31:20.571Z,15.47
2022-11-24T11:34:07.299Z,19.13
2022-11-24T11:36:45.177Z,15.53
2022-11-24T11:39:33.154Z,19.37
2022-11-24T11:42:31.434Z,18.53
2022-11-24T11:45:11.014Z,16.00
2022-11-24T11:47:46.323Z,16.98
2022-11-24T11:50:16.429Z,15.23
2022-11-24T11:53:18.474Z,14.87
2022-11-24T11:56:16.629Z,15.70
2022-11-24T11:59:20.389Z,16.70
2022-11-24T12:02:09.065Z,17.90
2022-11-24T12:04:39.054Z,18.60
2022-11-24T12:07:05.968Z,24.47
2022-11-24T12:09:51.505Z,18.87
2022-11-24T12:12:55.562Z,17.30
2022-11-24T12:15:41.077Z,17.73
2022-11-24T12:18:55.743Z,16.93
2022-11-24T12:21:27.776Z,17.53
2022-11-24T12:24:09.984Z,16.77
2022-11-24T12:26:49.359Z,18.90
2022-11-24T12:29:35.109Z,16.00
2022-11-24T12:32:26.943Z,20.53
2022-11-24T12:35:06.313Z,16.70
2022-11-24T12:37:48.566Z,18.67
2022-11-24T12:40:48.375Z,20.93
2022-11-24T12:43:44.904Z,19.13
2022-11-24T12:46:48.646Z,23.37
2022-11-24T12:49:25.763Z,21.27
2022-11-24T12:51:59.906Z,20.93
2022-11-24T12:54:34.018Z,23.37
2022-11-24T12:57:09.843Z,23.23
2022-11-24T12:59:51.818Z,28.53
2022-11-24T13:02:55.255Z,20.87
2022-11-24T13:05:32.941Z,19.63
2022-11-24T13:08:03.275Z,26.47
2022-11-24T13:10:56.198Z,21.13
2022-11-24T13:13:29.379Z,22.33
2022-11-24T13:16:20.669Z,21.73
2022-11-24T13:18:43.343Z,22.92
2022-11-24T13:21:47.148Z,15.73
2022-11-24T13:24:18.030Z,16.37
2022-11-24T13:26:49.118Z,21.83
2022-11-24T13:29:28.134Z,19.33
2022-11-24T13:32:17.752Z,23.07
2022-11-24T13:34:48.513Z,22.07
2022-11-24T13:37:34.449Z,17.90
2022-11-24T13:40:23.034Z,22.15
2022-11-24T13:45:41.836Z,19.93
2022-11-24T13:48:21.953Z,16.63
2022-11-24T13:50:58.649Z,18.10
2022-11-24T13:53:35.889Z,21.02
2022-11-24T13:56:02.887Z,19.97
2022-11-24T13:58:43.974Z,20.60
2022-11-24T14:01:20.123Z,21.73
2022-11-24T14:04:07.036Z,22.65
2022-11-24T14:06:42.688Z,20.40
2022-11-24T14:09:21.874Z,20.27
2022-11-24T14:12:26.866Z,18.73
2022-11-24T14:15:12.994Z,21.43
2022-11-24T14:17:40.010Z,21.03
2022-11-24T14:20:24.885Z,18.43
2022-11-24T14:22:52.551Z,16.03
2022-11-24T14:25:31.241Z,20.23
2022-11-24T14:27:59.739Z,21.47
2022-11-24T14:30:26.954Z,21.70
2022-11-24T14:33:04.080Z,21.83
2022-11-24T14:35:36.182Z,22.80
2022-11-24T14:38:06.031Z,19.60
2022-11-24T14:40:54.117Z,21.47
2022-11-24T14:43:23.780Z,18.43
2022-11-24T14:45:52.126Z,19.37
2022-11-24T14:48:24.751Z,20.03
2022-11-24T14:50:52.102Z,21.87
2022-11-24T14:53:26.181Z,23.13
2022-11-24T14:56:30.647Z,20.00
2022-11-24T14:58:58.896Z,16.60
2022-11-24T15:01:35.066Z,22.20
2022-11-24T15:04:46.734Z,21.75
2022-11-24T15:07:24.835Z,17.73
2022-11-24T15:10:03.647Z,16.30
2022-11-24T15:12:37.365Z,29.20
2022-11-24T15:15:06.057Z,18.43
2022-11-24T15:17:33.304Z,20.83
2022-11-24T15:20:07.842Z,19.57
2022-11-24T15:22:40.854Z,21.33
2022-11-24T15:25:29.747Z,17.07
2022-11-24T15:27:57.246Z,13.13
2022-11-24T15:30:24.551Z,15.47
2022-11-24T15:32:55.367Z,18.43
2022-11-24T15:35:24.202Z,15.30
2022-11-24T15:37:52.099Z,16.43
2022-11-24T15:40:19.399Z,15.67
2022-11-24T15:42:51.552Z,16.50
2022-11-24T15:45:19.948Z,17.43
2022-11-24T15:47:46.934Z,14.53
2022-11-24T15:50:14.515Z,15.47
2022-11-24T15:52:42.509Z,17.80
2022-11-24T15:55:18.480Z,14.43
2022-11-24T15:57:45.659Z,13.02
2022-11-24T16:00:17.652Z,14.80
2022-11-24T16:02:44.775Z,16.07
2022-11-24T16:05:12.902Z,16.93
2022-11-24T16:07:40.283Z,16.17
2022-11-24T16:10:14.899Z,14.77
2022-11-24T16:12:41.838Z,16.97
2022-11-24T16:15:09.348Z,19.43
2022-11-24T16:17:36.367Z,12.93
2022-11-24T16:20:03.861Z,14.30
2022-11-24T16:22:30.863Z,18.63
2022-11-24T16:24:57.792Z,12.23
2022-11-24T16:27:24.742Z,15.77
2022-11-24T16:29:52.189Z,12.23
2022-11-24T16:32:19.163Z,13.90
2022-11-24T16:34:46.072Z,14.87
2022-11-24T16:37:12.939Z,19.10
2022-11-24T16:39:39.786Z,15.77
2022-11-24T16:42:06.732Z,16.97
2022-11-24T16:44:36.705Z,16.17
2022-11-24T16:47:03.911Z,18.57
2022-11-24T16:49:30.856Z,17.07
2022-11-24T16:51:58.090Z,16.83
2022-11-24T16:54:25.855Z,21.03
2022-11-24T16:56:52.791Z,17.33
2022-11-24T16:59:19.752Z,18.73
2022-11-24T17:01:50.589Z,17.77
2022-11-24T17:04:18.050Z,15.57
2022-11-24T17:06:45.048Z,17.60
2022-11-24T17:09:12.344Z,19.93
2022-11-24T17:11:39.263Z,18.63
2022-11-24T17:14:06.129Z,18.53
2022-11-24T17:16:33.342Z,17.13
2022-11-24T17:19:00.354Z,16.33
2022-11-24T17:21:27.977Z,13.97
2022-11-24T17:23:56.334Z,22.10
2022-11-24T17:26:24.077Z,15.37
2022-11-24T17:28:51.074Z,17.10
2022-11-24T17:31:21.826Z,17.67
2022-11-24T17:33:50.323Z,17.40
2022-11-24T17:36:17.574Z,16.73
2022-11-24T17:38:44.722Z,15.57
2022-11-24T17:41:11.866Z,17.63
2022-11-24T17:43:38.744Z,14.20
2022-11-24T17:46:06.014Z,14.10
2022-11-24T17:48:34.752Z,16.43
2022-11-24T17:51:13.551Z,13.67
2022-11-24T17:53:42.491Z,13.87
2022-11-24T17:56:15.844Z,13.23
2022-11-24T17:58:43.624Z,14.40
2022-11-24T18:01:12.511Z,13.80
2022-11-24T18:03:40.577Z,17.77
2022-11-24T18:06:09.948Z,16.57
2022-11-24T18:08:38.460Z,13.43
2022-11-24T18:11:13.802Z,13.27
2022-11-24T18:13:56.612Z,12.53
2022-11-24T18:16:28.339Z,13.67
2022-11-24T18:19:09.867Z,11.93
2022-11-24T18:21:39.516Z,15.03
2022-11-24T18:24:08.051Z,12.93
2022-11-24T18:26:35.068Z,13.53
2022-11-24T18:29:02.214Z,14.40
2022-11-24T18:31:31.299Z,13.23
2022-11-24T18:33:59.502Z,14.40
2022-11-24T18:36:30.354Z,13.97
2022-11-24T18:39:00.935Z,13.63
2022-11-24T18:41:27.920Z,14.90
2022-11-24T18:43:54.760Z,16.37
2022-11-24T18:46:21.835Z,15.50
2022-11-24T18:48:48.747Z,14.70
2022-11-24T18:51:15.842Z,14.87
2022-11-24T18:53:44.234Z,13.30
2022-11-24T18:56:17.912Z,15.10
2022-11-24T18:58:45.191Z,15.13
2022-11-24T19:01:14.561Z,13.80
2022-11-24T19:03:48.928Z,12.37
2022-11-24T19:06:27.050Z,9.83
2022-11-24T19:08:55.018Z,11.97
2022-11-24T19:11:34.026Z,15.77
2022-11-24T19:14:02.602Z,13.80
2022-11-24T19:16:30.082Z,12.07
2022-11-24T19:19:00.265Z,13.13
2022-11-24T19:21:29.966Z,13.10
2022-11-24T19:24:02.901Z,14.03
2022-11-24T19:26:31.874Z,11.37
2022-11-24T19:28:58.764Z,12.93
2022-11-24T19:31:25.885Z,10.93
2022-11-24T19:33:54.742Z,13.80
2022-11-24T19:36:23.190Z,13.23
2022-11-24T19:38:52.637Z,12.57
2022-11-24T19:41:22.498Z,12.33
2022-11-24T19:43:49.851Z,12.47
2022-11-24T19:46:18.666Z,13.03
2022-11-24T19:48:50.041Z,9.93
2022-11-24T19:51:19.469Z,14.93
2022-11-24T19:53:46.942Z,11.87
2022-11-24T19:56:26.086Z,11.67
2022-11-24T19:58:54.494Z,9.33
2022-11-24T20:01:29.285Z,13.50
2022-11-24T20:04:00.963Z,10.97
2022-11-24T20:06:30.818Z,11.23
2022-11-24T20:08:59.403Z,11.80
2022-11-24T20:11:27.528Z,11.60
2022-11-24T20:13:55.175Z,12.20
2022-11-24T20:16:28.218Z,9.67
2022-11-24T20:19:05.812Z,11.07
2022-11-24T20:21:33.986Z,8.87
2022-11-24T20:24:13.491Z,10.30
2022-11-24T20:26:44.017Z,9.10
2022-11-24T20:29:13.183Z,7.60
2022-11-24T20:31:43.112Z,12.17
2022-11-24T20:34:11.403Z,11.30
2022-11-24T20:36:40.554Z,9.97
2022-11-24T20:39:12.414Z,10.40
2022-11-24T20:41:40.306Z,10.97
2022-11-24T20:44:10.627Z,11.47
2022-11-24T20:46:39.910Z,10.33
2022-11-24T20:49:08.963Z,9.87
2022-11-24T20:51:39.150Z,8.47
2022-11-24T20:54:08.765Z,9.17
2022-11-24T20:56:39.846Z,9.27
2022-11-24T20:59:08.680Z,9.93
2022-11-24T21:01:38.814Z,9.40
2022-11-24T21:04:12.539Z,9.40
2022-11-24T21:06:40.105Z,7.90
2022-11-24T21:09:08.570Z,8.40
2022-11-24T21:11:37.186Z,11.17
2022-11-24T21:14:04.360Z,9.90
2022-11-24T21:16:39.438Z,8.73
2022-11-24T21:19:09.641Z,9.97
2022-11-24T21:21:37.793Z,11.60
2022-11-24T21:24:07.418Z,9.20
2022-11-24T21:26:38.407Z,11.57
2022-11-24T21:29:06.764Z,9.87
2022-11-24T21:31:38.536Z,10.23
2022-11-24T21:34:06.844Z,9.17
2022-11-24T21:36:40.144Z,7.97
2022-11-24T21:39:07.335Z,7.47
2022-11-24T21:41:34.364Z,14.70
2022-11-24T21:44:01.689Z,9.13
2022-11-24T21:46:39.021Z,9.03
2022-11-24T21:49:08.016Z,10.30
2022-11-24T21:51:35.001Z,9.20
2022-11-24T21:54:01.928Z,10.07
2022-11-24T21:56:28.853Z,13.47
2022-11-24T21:58:57.533Z,10.93
2022-11-24T22:01:27.408Z,11.43
2022-11-24T22:03:55.421Z,12.20
2022-11-24T22:06:22.838Z,9.47
2022-11-24T22:08:49.971Z,9.17
2022-11-24T22:11:19.733Z,9.90
2022-11-24T22:13:47.038Z,10.93
2022-11-24T22:16:17.732Z,11.23
2022-11-24T22:18:45.815Z,11.80
2022-11-24T22:21:15.199Z,10.17
2022-11-24T22:23:43.063Z,7.60
2022-11-24T22:26:18.332Z,9.50
2022-11-24T22:28:46.148Z,10.43
2022-11-24T22:31:19.120Z,12.50
2022-11-24T22:33:46.533Z,10.37
2022-11-24T22:36:14.673Z,9.43
2022-11-24T22:38:42.007Z,9.90
2022-11-24T22:41:13.119Z,9.73
2022-11-24T22:43:41.718Z,9.77
2022-11-24T22:46:17.047Z,7.97
2022-11-24T22:48:45.303Z,10.60
2022-11-24T22:51:14.882Z,9.90
2022-11-24T22:53:46.245Z,10.33
2022-11-24T22:56:13.240Z,9.87
2022-11-24T22:58:40.460Z,8.13
2022-11-24T23:01:12.775Z,8.43
2022-11-24T23:03:40.906Z,9.90
2022-11-24T23:06:12.313Z,8.37
2022-11-24T23:08:40.334Z,10.87
2022-11-24T23:11:17.639Z,8.10
2022-11-24T23:13:45.159Z,12.10
2022-11-24T23:16:17.329Z,9.03
2022-11-24T23:18:49.821Z,8.33
2022-11-24T23:21:22.024Z,8.43
2022-11-24T23:23:50.068Z,13.03
2022-11-24T23:26:23.208Z,9.53
2022-11-24T23:28:50.792Z,8.10
2022-11-24T23:31:21.514Z,8.17
2022-11-24T23:33:48.503Z,11.07
2022-11-24T23:36:20.385Z,6.73
2022-11-24T23:38:48.481Z,9.80
2022-11-24T23:41:19.085Z,10.83
2022-11-24T23:43:46.132Z,13.13
2022-11-24T23:46:15.766Z,7.80
2022-11-24T23:48:43.456Z,9.17
2022-11-24T23:51:13.438Z,7.53
2022-11-24T23:53:40.858Z,8.73
2022-11-24T23:56:09.243Z,7.30
2022-11-24T23:58:36.152Z,10.03
